Time,TemperatureF,DewpointF,PressureIn,WindDirection,WindDirectionDegrees,WindSpeedMPH,WindSpeedGustMPH,Humidity,HourlyPrecipIn,Conditions,Clouds,dailyrainin,SoftwareType,DateUTC
2013-08-04 00:02:00,73.2,70.1,29.87,WSW,239,0.0,0.0,90,0.00,,FEW250,0.03,VWS V14.00,2013-08-04 04:02:00,
2013-08-04 00:17:00,73.7,70.3,29.87,WSW,239,0.0,0.0,89,0.00,,FEW250,0.00,VWS V14.00,2013-08-04 04:17:00,
2013-08-04 00:32:00,74.2,70.1,29.87,WSW,239,0.0,0.0,87,0.00,,FEW250,0.00,VWS V14.00,2013-08-04 04:32:00,
2013-08-04 00:47:00,73.9,69.8,29.87,WSW,239,0.0,0.0,87,0.00,,FEW250,0.00,VWS V14.00,2013-08-04 04:47:00,
2013-08-04 01:02:00,73.5,69.4,29.86,WSW,239,0.0,0.0,87,0.00,,FEW250,0.00,VWS V14.00,2013-08-04 05:02:00,
2013-08-04 01:17:00,73.9,69.8,29.86,WSW,239,0.0,0.0,87,0.00,,FEW250,0.00,VWS V14.00,2013-08-04 05:17:00,
2013-08-04 01:32:00,74.0,69.6,29.86,WSW,239,0.0,0.0,86,0.00,,FEW250,0.00,VWS V14.00,2013-08-04 05:32:00,
2013-08-04 01:47:00,74.0,69.2,29.86,WSW,239,0.0,0.0,85,0.00,,FEW250,0.00,VWS V14.00,2013-08-04 05:47:00,
2013-08-04 02:02:00,74.0,68.9,29.85,WSW,239,0.0,0.0,84,0.00,,SCT250,0.00,VWS V14.00,2013-08-04 06:02:00,
2013-08-04 02:17:00,73.7,68.6,29.84,WSW,239,0.0,0.0,84,0.00,,SCT250,0.00,VWS V14.00,2013-08-04 06:17:00,
2013-08-04 02:32:00,73.5,68.4,29.84,WSW,239,0.0,0.0,84,0.00,,SCT250,0.00,VWS V14.00,2013-08-04 06:32:00,
2013-08-04 02:47:00,73.2,68.1,29.84,WSW,239,0.0,0.0,84,0.00,,SCT250,0.00,VWS V14.00,2013-08-04 06:47:00,
2013-08-04 03:02:00,72.7,68.3,29.84,WSW,239,0.0,0.0,86,0.00,,SCT250,0.00,VWS V14.00,2013-08-04 07:02:00,
2013-08-04 03:17:00,72.3,68.2,29.84,WSW,239,0.0,0.0,87,0.00,,SCT250,0.00,VWS V14.00,2013-08-04 07:17:00,
2013-08-04 03:32:00,72.3,68.6,29.84,WSW,239,0.0,0.0,88,0.00,,SCT250,0.00,VWS V14.00,2013-08-04 07:32:00,
2013-08-04 03:47:00,72.3,68.6,29.84,WSW,239,0.0,1.0,88,0.00,,SCT250,0.00,VWS V14.00,2013-08-04 07:47:00,
2013-08-04 04:02:00,72.5,68.4,29.84,WSW,239,0.0,2.0,87,0.00,,FEW250,0.00,VWS V14.00,2013-08-04 08:02:00,
2013-08-04 04:17:00,73.3,67.5,29.83,NNW,336,2.0,7.0,82,0.00,,FEW250,0.00,VWS V14.00,2013-08-04 08:17:00,
2013-08-04 04:32:00,73.9,67.7,29.84,NNW,332,1.0,6.0,81,0.00,,FEW250,0.00,VWS V14.00,2013-08-04 08:32:00,
2013-08-04 04:47:00,73.7,67.9,29.84,NNW,332,0.0,2.0,82,0.00,,FEW250,0.00,VWS V14.00,2013-08-04 08:47:00,
2013-08-04 05:02:00,73.2,68.1,29.83,NNW,332,0.0,0.0,84,0.00,,BKN095,0.00,VWS V14.00,2013-08-04 09:02:00,
2013-08-04 05:17:00,72.8,67.7,29.84,NNW,332,0.0,0.0,84,0.00,,BKN095,0.00,VWS V14.00,2013-08-04 09:17:00,
2013-08-04 05:32:00,72.7,67.6,29.85,NNW,332,0.0,1.0,84,0.00,,BKN095,0.00,VWS V14.00,2013-08-04 09:32:00,
2013-08-04 05:47:00,72.8,68.0,29.85,NNW,332,0.0,1.0,85,0.00,,BKN095,0.00,VWS V14.00,2013-08-04 09:47:00,
2013-08-04 06:02:00,72.8,68.4,29.85,NNW,332,0.0,0.0,86,0.00,,BKN100,0.00,VWS V14.00,2013-08-04 10:02:00,
2013-08-04 06:17:00,72.7,68.6,29.85,NNW,332,0.0,1.0,87,0.00,,BKN100,0.00,VWS V14.00,2013-08-04 10:17:00,
2013-08-04 06:32:00,72.5,68.4,29.85,NNW,332,0.0,1.0,87,0.00,,BKN100,0.00,VWS V14.00,2013-08-04 10:32:00,
2013-08-04 06:47:00,72.3,68.6,29.86,NNW,332,0.0,0.0,88,0.00,,BKN100,0.00,VWS V14.00,2013-08-04 10:47:00,
2013-08-04 07:02:00,72.5,69.1,29.87,NNW,332,0.0,0.0,89,0.00,,-RA,0.00,VWS V14.00,2013-08-04 11:02:00,
2013-08-04 07:17:00,72.5,69.1,29.87,NNW,332,0.0,0.0,89,0.00,,-RA,0.00,VWS V14.00,2013-08-04 11:17:00,
2013-08-04 07:32:00,72.5,68.8,29.87,NNW,332,0.0,0.0,88,0.00,,-RA,0.00,VWS V14.00,2013-08-04 11:32:00,
2013-08-04 07:47:00,73.2,69.1,29.87,NNW,332,0.0,0.0,87,0.00,,-RA,0.00,VWS V14.00,2013-08-04 11:47:00,
2013-08-04 08:02:00,74.0,69.6,29.87,NNW,332,0.0,1.0,86,0.00,,-RA,0.00,VWS V14.00,2013-08-04 12:02:00,
2013-08-04 08:17:00,75.8,69.9,29.88,NW,322,0.0,1.0,82,0.00,,-RA,0.00,VWS V14.00,2013-08-04 12:17:00,
2013-08-04 08:32:00,76.8,70.9,29.89,NW,322,0.0,0.0,82,0.00,,-RA,0.00,VWS V14.00,2013-08-04 12:32:00,
2013-08-04 08:47:00,77.9,72.0,29.89,NW,313,0.0,2.0,82,0.00,,-RA,0.00,VWS V14.00,2013-08-04 12:47:00,
2013-08-04 09:02:00,78.8,72.8,29.89,NW,309,0.0,3.0,82,0.00,,SCT140,0.00,VWS V14.00,2013-08-04 13:02:00,
2013-08-04 09:17:00,79.0,69.2,29.90,NW,305,0.0,5.0,72,0.00,,SCT140,0.00,VWS V14.00,2013-08-04 13:17:00,
2013-08-04 09:32:00,79.8,69.6,29.90,WNW,302,1.0,5.0,71,0.00,,SCT140,0.00,VWS V14.00,2013-08-04 13:32:00,
2013-08-04 09:47:00,80.1,68.2,29.90,North,349,1.0,7.0,67,0.00,,SCT140,0.00,VWS V14.00,2013-08-04 13:47:00,
2013-08-04 10:02:00,80.3,67.9,29.90,NNW,329,0.0,7.0,66,0.00,,FEW020,0.00,VWS V14.00,2013-08-04 14:02:00,
2013-08-04 10:17:00,80.3,66.6,29.90,NW,315,1.0,8.0,63,0.00,,FEW020,0.00,VWS V14.00,2013-08-04 14:17:00,
2013-08-04 10:32:00,80.9,67.6,29.90,NNE,13,0.0,8.0,64,0.00,,FEW020,0.00,VWS V14.00,2013-08-04 14:32:00,
2013-08-04 10:47:00,81.4,66.7,29.91,SSW,202,0.0,6.0,61,0.00,,FEW020,0.00,VWS V14.00,2013-08-04 14:47:00,
2013-08-04 11:02:00,81.2,66.5,29.92,ENE,69,3.0,11.0,61,0.00,,FEW025,0.00,VWS V14.00,2013-08-04 15:02:00,
2013-08-04 11:17:00,81.4,66.7,29.91,NNW,337,2.0,6.0,61,0.00,,FEW025,0.00,VWS V14.00,2013-08-04 15:17:00,
2013-08-04 11:32:00,81.6,66.4,29.91,NW,319,2.0,3.0,60,0.00,,FEW025,0.00,VWS V14.00,2013-08-04 15:32:00,
2013-08-04 11:47:00,82.2,67.4,29.91,ESE,112,3.0,6.0,61,0.00,,FEW025,0.00,VWS V14.00,2013-08-04 15:47:00,
2013-08-04 12:02:00,82.0,66.3,29.92,NNE,16,0.0,7.0,59,0.00,,SCT027,0.00,VWS V14.00,2013-08-04 16:02:00,
2013-08-04 12:17:00,81.4,67.1,29.91,SSE,148,0.0,6.0,62,0.00,,SCT027,0.00,VWS V14.00,2013-08-04 16:17:00,
2013-08-04 12:32:00,82.4,65.7,29.90,South,185,2.0,7.0,57,0.00,,SCT027,0.00,VWS V14.00,2013-08-04 16:32:00,
2013-08-04 12:47:00,83.2,65.9,29.90,East,97,3.0,7.0,56,0.00,,SCT027,0.00,VWS V14.00,2013-08-04 16:47:00,
2013-08-04 13:02:00,83.0,65.7,29.90,SSE,164,0.0,7.0,56,0.00,,SCT036,0.00,VWS V14.00,2013-08-04 17:02:00,
2013-08-04 13:17:00,83.2,63.8,29.90,ENE,68,0.0,3.0,52,0.00,,SCT036,0.00,VWS V14.00,2013-08-04 17:17:00,
2013-08-04 13:32:00,83.8,63.2,29.90,WNW,282,0.0,5.0,50,0.00,,SCT036,0.00,VWS V14.00,2013-08-04 17:32:00,
2013-08-04 13:47:00,83.6,64.1,29.90,SW,232,6.0,6.0,52,0.00,,SCT036,0.00,VWS V14.00,2013-08-04 17:47:00,
2013-08-04 14:02:00,83.2,63.2,29.90,NNW,342,1.0,6.0,51,0.00,,SCT250,0.00,VWS V14.00,2013-08-04 18:02:00,
2013-08-04 14:17:00,83.4,61.7,29.90,SE,140,0.0,3.0,48,0.00,,SCT250,0.00,VWS V14.00,2013-08-04 18:17:00,
2013-08-04 14:32:00,83.4,60.5,29.89,SSE,154,3.0,6.0,46,0.00,,SCT250,0.00,VWS V14.00,2013-08-04 18:32:00,
2013-08-04 14:47:00,83.0,58.9,29.89,SSW,195,0.0,6.0,44,0.00,,SCT250,0.00,VWS V14.00,2013-08-04 18:47:00,
2013-08-04 15:02:00,81.6,60.0,29.89,NW,318,0.0,6.0,48,0.00,,SCT046,0.00,VWS V14.00,2013-08-04 19:02:00,
2013-08-04 15:17:00,82.2,59.4,29.89,NNW,333,0.0,6.0,46,0.00,,SCT046,0.00,VWS V14.00,2013-08-04 19:17:00,
2013-08-04 15:32:00,82.6,60.9,29.89,NNW,343,2.0,6.0,48,0.00,,SCT046,0.00,VWS V14.00,2013-08-04 19:32:00,
2013-08-04 15:47:00,82.2,58.8,29.89,NW,320,0.0,5.0,45,0.00,,SCT046,0.00,VWS V14.00,2013-08-04 19:47:00,
2013-08-04 16:02:00,82.2,58.8,29.89,North,349,0.0,6.0,45,0.00,,SCT250,0.00,VWS V14.00,2013-08-04 20:02:00,
2013-08-04 16:17:00,82.8,58.7,29.88,SE,145,0.0,7.0,44,0.00,,SCT250,0.00,VWS V14.00,2013-08-04 20:17:00,
2013-08-04 16:32:00,82.6,59.1,29.88,WSW,243,1.0,5.0,45,0.00,,SCT250,0.00,VWS V14.00,2013-08-04 20:32:00,
2013-08-04 16:47:00,83.2,60.9,29.88,SW,226,0.0,5.0,47,0.00,,SCT250,0.00,VWS V14.00,2013-08-04 20:47:00,
2013-08-04 17:02:00,83.0,58.9,29.88,NNW,336,0.0,5.0,44,0.00,,SCT065,0.00,VWS V14.00,2013-08-04 21:02:00,
2013-08-04 17:17:00,82.8,59.3,29.88,NE,35,1.0,4.0,45,0.00,,SCT065,0.00,VWS V14.00,2013-08-04 21:17:00,
2013-08-04 17:32:00,82.4,59.6,29.88,East,83,0.0,3.0,46,0.00,,SCT065,0.00,VWS V14.00,2013-08-04 21:32:00,
2013-08-04 17:47:00,82.0,61.0,29.89,East,100,3.0,3.0,49,0.00,,SCT065,0.00,VWS V14.00,2013-08-04 21:47:00,
2013-08-04 18:02:00,81.2,60.8,29.89,East,99,0.0,3.0,50,0.00,,BKN070,0.00,VWS V14.00,2013-08-04 22:02:00,
2013-08-04 18:17:00,81.2,60.8,29.89,ESE,103,0.0,3.0,50,0.00,,BKN070,0.00,VWS V14.00,2013-08-04 22:17:00,
2013-08-04 18:32:00,80.9,61.1,29.89,East,95,0.0,2.0,51,0.00,,BKN070,0.00,VWS V14.00,2013-08-04 22:32:00,
2013-08-04 18:47:00,80.7,62.0,29.89,East,93,0.0,1.0,53,0.00,,BKN070,0.00,VWS V14.00,2013-08-04 22:47:00,
2013-08-04 19:02:00,79.9,62.8,29.89,East,88,0.0,2.0,56,0.00,,BKN070,0.00,VWS V14.00,2013-08-04 23:02:00,
2013-08-04 19:17:00,79.8,63.7,29.89,East,90,0.0,2.0,58,0.00,,BKN070,0.00,VWS V14.00,2013-08-04 23:17:00,
2013-08-04 19:32:00,79.0,63.9,29.89,East,90,0.0,1.0,60,0.00,,BKN070,0.00,VWS V14.00,2013-08-04 23:32:00,
2013-08-04 19:47:00,77.6,63.6,29.90,East,82,0.0,0.0,62,0.00,,BKN070,0.00,VWS V14.00,2013-08-04 23:47:00,
2013-08-04 20:02:00,76.5,63.4,29.90,East,82,0.0,0.0,64,0.00,,SCT070,0.00,VWS V14.00,2013-08-05 00:02:00,
2013-08-04 20:17:00,76.0,63.4,29.90,East,82,0.0,0.0,65,0.00,,SCT070,0.00,VWS V14.00,2013-08-05 00:17:00,
2013-08-04 20:32:00,76.0,63.4,29.90,East,82,0.0,0.0,65,0.00,,FEW065,0.00,VWS V14.00,2013-08-05 00:32:00,
2013-08-04 20:47:00,76.0,63.4,29.91,East,82,0.0,0.0,65,0.00,,FEW065,0.00,VWS V14.00,2013-08-05 00:47:00,
2013-08-04 21:02:00,76.0,63.4,29.91,East,82,0.0,0.0,65,0.00,,FEW065,0.00,VWS V14.00,2013-08-05 01:02:00,
2013-08-04 21:17:00,76.0,63.4,29.91,East,82,0.0,0.0,65,0.00,,FEW065,0.00,VWS V14.00,2013-08-05 01:17:00,
2013-08-04 21:32:00,76.0,63.4,29.92,East,82,0.0,0.0,65,0.00,,FEW065,0.00,VWS V14.00,2013-08-05 01:32:00,
2013-08-04 21:47:00,71.5,59.1,29.93,East,83,0.0,0.0,65,0.00,,FEW065,0.00,VWS V14.00,2013-08-05 01:47:00,
2013-08-04 22:02:00,71.5,59.1,29.93,East,83,0.0,0.0,65,0.00,,FEW065,0.00,VWS V14.00,2013-08-05 02:02:00,
2013-08-04 22:17:00,71.5,59.1,29.93,East,83,0.0,0.0,65,0.00,,FEW065,0.00,VWS V14.00,2013-08-05 02:17:00,
2013-08-04 22:32:00,71.5,59.1,29.93,East,83,0.0,0.0,65,0.00,,FEW065,0.00,VWS V14.00,2013-08-05 02:32:00,
2013-08-04 22:47:00,71.5,59.1,29.94,East,83,0.0,0.0,65,0.00,,FEW065,0.00,VWS V14.00,2013-08-05 02:47:00,
2013-08-04 23:02:00,71.5,59.1,29.93,East,83,0.0,0.0,65,0.00,,BKN080,0.00,VWS V14.00,2013-08-05 03:02:00,
2013-08-04 23:17:00,70.1,57.8,29.94,East,79,0.0,0.0,65,0.00,,BKN080,0.00,VWS V14.00,2013-08-05 03:17:00,
2013-08-04 23:32:00,70.1,64.4,29.95,East,79,0.0,0.0,82,0.00,,BKN080,0.00,VWS V14.00,2013-08-05 03:32:00,
2013-08-04 23:47:00,70.3,64.9,29.95,East,79,0.0,0.0,83,0.00,,BKN080,0.00,VWS V14.00,2013-08-05 03:47:00,